sensor_id;sensor_type;location;lat;lon;timestamp;P1;durP1;ratioP1;P2;durP2;ratioP2
77678;SDS011;66835;49.478;10.724;2023-03-01T00:01:21;2.17;;;1.35;;
77678;SDS011;66835;49.478;10.724;2023-03-01T00:03:48;2.60;;;1.58;;
77678;SDS011;66835;49.478;10.724;2023-03-01T00:06:13;2.28;;;1.45;;
77678;SDS011;66835;49.478;10.724;2023-03-01T00:08:39;2.70;;;1.60;;
77678;SDS011;66835;49.478;10.724;2023-03-01T00:11:06;2.43;;;1.60;;
77678;SDS011;66835;49.478;10.724;2023-03-01T00:13:32;2.55;;;1.55;;
77678;SDS011;66835;49.478;10.724;2023-03-01T00:15:58;2.70;;;1.95;;
77678;SDS011;66835;49.478;10.724;2023-03-01T00:18:24;2.42;;;1.55;;
77678;SDS011;66835;49.478;10.724;2023-03-01T00:20:49;2.60;;;1.80;;
77678;SDS011;66835;49.478;10.724;2023-03-01T00:23:16;2.45;;;1.67;;
77678;SDS011;66835;49.478;10.724;2023-03-01T00:25:41;3.28;;;1.77;;
77678;SDS011;66835;49.478;10.724;2023-03-01T00:28:08;2.13;;;1.35;;
77678;SDS011;66835;49.478;10.724;2023-03-01T00:30:33;2.50;;;1.60;;
77678;SDS011;66835;49.478;10.724;2023-03-01T00:32:59;2.42;;;1.42;;
77678;SDS011;66835;49.478;10.724;2023-03-01T00:35:24;2.65;;;1.60;;
77678;SDS011;66835;49.478;10.724;2023-03-01T00:37:49;2.65;;;1.65;;
77678;SDS011;66835;49.478;10.724;2023-03-01T00:40:22;2.65;;;1.77;;
77678;SDS011;66835;49.478;10.724;2023-03-01T00:42:48;2.40;;;1.60;;
77678;SDS011;66835;49.478;10.724;2023-03-01T00:45:15;2.22;;;1.27;;
77678;SDS011;66835;49.478;10.724;2023-03-01T00:47:41;2.40;;;1.60;;
77678;SDS011;66835;49.478;10.724;2023-03-01T00:50:06;2.70;;;1.80;;
77678;SDS011;66835;49.478;10.724;2023-03-01T00:52:33;2.67;;;1.60;;
77678;SDS011;66835;49.478;10.724;2023-03-01T00:54:58;2.15;;;1.55;;
77678;SDS011;66835;49.478;10.724;2023-03-01T00:57:24;2.63;;;1.85;;
77678;SDS011;66835;49.478;10.724;2023-03-01T00:59:49;2.88;;;1.75;;
77678;SDS011;66835;49.478;10.724;2023-03-01T01:02:16;2.45;;;1.55;;
77678;SDS011;66835;49.478;10.724;2023-03-01T01:04:41;2.47;;;1.80;;
77678;SDS011;66835;49.478;10.724;2023-03-01T01:07:07;2.67;;;1.77;;
77678;SDS011;66835;49.478;10.724;2023-03-01T01:09:32;2.30;;;1.42;;
77678;SDS011;66835;49.478;10.724;2023-03-01T01:11:57;2.70;;;1.70;;
77678;SDS011;66835;49.478;10.724;2023-03-01T01:14:23;2.58;;;1.80;;
77678;SDS011;66835;49.478;10.724;2023-03-01T01:16:48;2.70;;;1.80;;
77678;SDS011;66835;49.478;10.724;2023-03-01T01:19:15;2.92;;;1.85;;
77678;SDS011;66835;49.478;10.724;2023-03-01T01:21:40;2.78;;;1.77;;
77678;SDS011;66835;49.478;10.724;2023-03-01T01:24:08;2.55;;;1.55;;
77678;SDS011;66835;49.478;10.724;2023-03-01T01:26:34;2.65;;;1.70;;
77678;SDS011;66835;49.478;10.724;2023-03-01T01:29:00;2.58;;;1.67;;
77678;SDS011;66835;49.478;10.724;2023-03-01T01:31:26;2.85;;;1.90;;
77678;SDS011;66835;49.478;10.724;2023-03-01T01:33:53;2.33;;;1.63;;
77678;SDS011;66835;49.478;10.724;2023-03-01T01:36:20;2.47;;;1.60;;
77678;SDS011;66835;49.478;10.724;2023-03-01T01:38:46;2.60;;;1.52;;
77678;SDS011;66835;49.478;10.724;2023-03-01T01:41:11;3.03;;;1.90;;
77678;SDS011;66835;49.478;10.724;2023-03-01T01:43:38;2.70;;;1.83;;
77678;SDS011;66835;49.478;10.724;2023-03-01T01:46:06;2.80;;;1.90;;
77678;SDS011;66835;49.478;10.724;2023-03-01T01:48:40;2.70;;;1.90;;
77678;SDS011;66835;49.478;10.724;2023-03-01T01:51:08;2.58;;;1.73;;
77678;SDS011;66835;49.478;10.724;2023-03-01T01:53:37;3.22;;;1.98;;
77678;SDS011;66835;49.478;10.724;2023-03-01T01:56:03;2.67;;;1.60;;
77678;SDS011;66835;49.478;10.724;2023-03-01T01:58:31;2.88;;;2.00;;
77678;SDS011;66835;49.478;10.724;2023-03-01T02:00:57;2.83;;;1.83;;
77678;SDS011;66835;49.478;10.724;2023-03-01T02:03:23;2.60;;;1.60;;
77678;SDS011;66835;49.478;10.724;2023-03-01T02:05:55;2.75;;;1.65;;
77678;SDS011;66835;49.478;10.724;2023-03-01T02:08:23;2.50;;;1.55;;
77678;SDS011;66835;49.478;10.724;2023-03-01T02:10:51;2.17;;;1.50;;
77678;SDS011;66835;49.478;10.724;2023-03-01T02:13:18;3.15;;;1.98;;
77678;SDS011;66835;49.478;10.724;2023-03-01T02:15:43;2.80;;;1.90;;
77678;SDS011;66835;49.478;10.724;2023-03-01T02:18:10;2.80;;;1.80;;
77678;SDS011;66835;49.478;10.724;2023-03-01T02:20:39;2.90;;;1.95;;
77678;SDS011;66835;49.478;10.724;2023-03-01T02:23:10;2.80;;;1.92;;
77678;SDS011;66835;49.478;10.724;2023-03-01T02:25:39;2.70;;;1.90;;
77678;SDS011;66835;49.478;10.724;2023-03-01T02:28:08;2.92;;;1.92;;
77678;SDS011;66835;49.478;10.724;2023-03-01T02:30:41;2.70;;;1.67;;
77678;SDS011;66835;49.478;10.724;2023-03-01T02:33:28;2.75;;;1.65;;
77678;SDS011;66835;49.478;10.724;2023-03-01T02:35:57;2.50;;;1.85;;
77678;SDS011;66835;49.478;10.724;2023-03-01T02:38:24;2.92;;;1.88;;
77678;SDS011;66835;49.478;10.724;2023-03-01T02:40:49;2.13;;;1.48;;
77678;SDS011;66835;49.478;10.724;2023-03-01T02:43:15;2.63;;;1.85;;
77678;SDS011;66835;49.478;10.724;2023-03-01T02:45:47;2.60;;;1.70;;
77678;SDS011;66835;49.478;10.724;2023-03-01T02:48:13;2.65;;;1.70;;
77678;SDS011;66835;49.478;10.724;2023-03-01T02:50:44;2.63;;;1.60;;
77678;SDS011;66835;49.478;10.724;2023-03-01T02:53:17;2.97;;;2.00;;
77678;SDS011;66835;49.478;10.724;2023-03-01T02:55:47;3.92;;;1.73;;
77678;SDS011;66835;49.478;10.724;2023-03-01T02:58:13;2.42;;;1.55;;
77678;SDS011;66835;49.478;10.724;2023-03-01T03:00:39;2.78;;;1.70;;
77678;SDS011;66835;49.478;10.724;2023-03-01T03:03:11;2.53;;;1.80;;
77678;SDS011;66835;49.478;10.724;2023-03-01T03:05:38;2.33;;;1.40;;
77678;SDS011;66835;49.478;10.724;2023-03-01T03:08:04;3.00;;;1.70;;
77678;SDS011;66835;49.478;10.724;2023-03-01T03:10:31;2.47;;;1.67;;
77678;SDS011;66835;49.478;10.724;2023-03-01T03:12:58;2.50;;;1.70;;
77678;SDS011;66835;49.478;10.724;2023-03-01T03:15:25;2.42;;;1.65;;
77678;SDS011;66835;49.478;10.724;2023-03-01T03:17:52;2.53;;;1.60;;
77678;SDS011;66835;49.478;10.724;2023-03-01T03:20:20;2.67;;;1.52;;
77678;SDS011;66835;49.478;10.724;2023-03-01T03:22:48;2.70;;;1.70;;
77678;SDS011;66835;49.478;10.724;2023-03-01T03:25:14;2.88;;;1.92;;
77678;SDS011;66835;49.478;10.724;2023-03-01T03:27:40;2.90;;;2.00;;
77678;SDS011;66835;49.478;10.724;2023-03-01T03:30:09;2.85;;;2.05;;
77678;SDS011;66835;49.478;10.724;2023-03-01T03:32:37;3.05;;;2.20;;
77678;SDS011;66835;49.478;10.724;2023-03-01T03:35:03;2.83;;;1.80;;
77678;SDS011;66835;49.478;10.724;2023-03-01T03:37:35;2.65;;;1.83;;
77678;SDS011;66835;49.478;10.724;2023-03-01T03:40:19;2.90;;;1.90;;
77678;SDS011;66835;49.478;10.724;2023-03-01T03:42:45;3.20;;;2.13;;
77678;SDS011;66835;49.478;10.724;2023-03-01T03:45:10;2.87;;;1.97;;
77678;SDS011;66835;49.478;10.724;2023-03-01T03:47:36;2.70;;;1.58;;
77678;SDS011;66835;49.478;10.724;2023-03-01T03:50:01;2.80;;;1.70;;
77678;SDS011;66835;49.478;10.724;2023-03-01T03:52:26;2.80;;;1.90;;
77678;SDS011;66835;49.478;10.724;2023-03-01T03:54:53;3.00;;;2.23;;
77678;SDS011;66835;49.478;10.724;2023-03-01T03:57:18;2.70;;;1.80;;
77678;SDS011;66835;49.478;10.724;2023-03-01T03:59:44;2.70;;;1.80;;
77678;SDS011;66835;49.478;10.724;2023-03-01T04:02:09;2.73;;;1.83;;
77678;SDS011;66835;49.478;10.724;2023-03-01T04:04:34;2.83;;;1.80;;
77678;SDS011;66835;49.478;10.724;2023-03-01T04:07:00;3.08;;;1.83;;
77678;SDS011;66835;49.478;10.724;2023-03-01T04:09:25;2.65;;;1.95;;
77678;SDS011;66835;49.478;10.724;2023-03-01T04:11:52;2.60;;;1.70;;
77678;SDS011;66835;49.478;10.724;2023-03-01T04:14:17;2.40;;;1.60;;
77678;SDS011;66835;49.478;10.724;2023-03-01T04:16:43;2.90;;;2.00;;
77678;SDS011;66835;49.478;10.724;2023-03-01T04:19:08;2.53;;;1.83;;
77678;SDS011;66835;49.478;10.724;2023-03-01T04:21:34;3.00;;;2.00;;
77678;SDS011;66835;49.478;10.724;2023-03-01T04:24:01;3.20;;;2.40;;
77678;SDS011;66835;49.478;10.724;2023-03-01T04:26:28;2.78;;;1.83;;
77678;SDS011;66835;49.478;10.724;2023-03-01T04:28:55;2.50;;;1.70;;
77678;SDS011;66835;49.478;10.724;2023-03-01T04:31:20;3.45;;;2.35;;
77678;SDS011;66835;49.478;10.724;2023-03-01T04:33:47;3.05;;;2.05;;
77678;SDS011;66835;49.478;10.724;2023-03-01T04:36:14;2.58;;;1.77;;
77678;SDS011;66835;49.478;10.724;2023-03-01T04:38:41;2.63;;;2.00;;
77678;SDS011;66835;49.478;10.724;2023-03-01T04:41:07;2.65;;;1.85;;
77678;SDS011;66835;49.478;10.724;2023-03-01T04:43:35;2.95;;;2.00;;
77678;SDS011;66835;49.478;10.724;2023-03-01T04:46:02;2.67;;;1.90;;
77678;SDS011;66835;49.478;10.724;2023-03-01T04:48:28;2.67;;;1.70;;
77678;SDS011;66835;49.478;10.724;2023-03-01T04:50:53;2.63;;;1.70;;
77678;SDS011;66835;49.478;10.724;2023-03-01T04:53:19;3.10;;;2.00;;
77678;SDS011;66835;49.478;10.724;2023-03-01T04:55:44;2.85;;;1.80;;
77678;SDS011;66835;49.478;10.724;2023-03-01T04:58:10;2.70;;;1.90;;
77678;SDS011;66835;49.478;10.724;2023-03-01T05:00:35;2.45;;;1.50;;
77678;SDS011;66835;49.478;10.724;2023-03-01T05:03:02;2.13;;;1.30;;
77678;SDS011;66835;49.478;10.724;2023-03-01T05:05:28;2.67;;;1.80;;
77678;SDS011;66835;49.478;10.724;2023-03-01T05:07:56;2.75;;;1.90;;
77678;SDS011;66835;49.478;10.724;2023-03-01T05:10:23;2.42;;;1.70;;
77678;SDS011;66835;49.478;10.724;2023-03-01T05:12:49;2.72;;;1.88;;
77678;SDS011;66835;49.478;10.724;2023-03-01T05:15:17;2.38;;;1.55;;
77678;SDS011;66835;49.478;10.724;2023-03-01T05:17:42;3.20;;;1.88;;
77678;SDS011;66835;49.478;10.724;2023-03-01T05:20:10;2.90;;;1.90;;
77678;SDS011;66835;49.478;10.724;2023-03-01T05:22:36;3.25;;;2.22;;
77678;SDS011;66835;49.478;10.724;2023-03-01T05:25:01;2.47;;;1.60;;
77678;SDS011;66835;49.478;10.724;2023-03-01T05:27:27;2.70;;;1.90;;
77678;SDS011;66835;49.478;10.724;2023-03-01T05:29:54;2.60;;;1.80;;
77678;SDS011;66835;49.478;10.724;2023-03-01T05:32:20;2.50;;;1.90;;
77678;SDS011;66835;49.478;10.724;2023-03-01T05:34:45;2.83;;;1.98;;
77678;SDS011;66835;49.478;10.724;2023-03-01T05:37:12;2.58;;;1.75;;
77678;SDS011;66835;49.478;10.724;2023-03-01T05:39:38;3.10;;;1.98;;
77678;SDS011;66835;49.478;10.724;2023-03-01T05:42:04;3.00;;;2.10;;
77678;SDS011;66835;49.478;10.724;2023-03-01T05:44:29;2.80;;;2.08;;
77678;SDS011;66835;49.478;10.724;2023-03-01T05:46:55;2.53;;;1.60;;
77678;SDS011;66835;49.478;10.724;2023-03-01T05:49:21;2.70;;;1.85;;
77678;SDS011;66835;49.478;10.724;2023-03-01T05:51:50;2.63;;;1.60;;
77678;SDS011;66835;49.478;10.724;2023-03-01T05:54:17;2.80;;;1.90;;
77678;SDS011;66835;49.478;10.724;2023-03-01T05:56:43;2.80;;;1.95;;
77678;SDS011;66835;49.478;10.724;2023-03-01T05:59:09;2.58;;;1.90;;
77678;SDS011;66835;49.478;10.724;2023-03-01T06:01:35;2.88;;;1.80;;
77678;SDS011;66835;49.478;10.724;2023-03-01T06:04:01;2.88;;;2.03;;
77678;SDS011;66835;49.478;10.724;2023-03-01T06:06:26;2.65;;;1.80;;
77678;SDS011;66835;49.478;10.724;2023-03-01T06:08:52;3.03;;;1.63;;
77678;SDS011;66835;49.478;10.724;2023-03-01T06:11:20;2.67;;;1.85;;
77678;SDS011;66835;49.478;10.724;2023-03-01T06:13:45;2.88;;;1.80;;
77678;SDS011;66835;49.478;10.724;2023-03-01T06:16:11;2.53;;;1.77;;
77678;SDS011;66835;49.478;10.724;2023-03-01T06:18:37;2.65;;;1.80;;
77678;SDS011;66835;49.478;10.724;2023-03-01T06:21:03;3.03;;;2.05;;
77678;SDS011;66835;49.478;10.724;2023-03-01T06:23:29;2.90;;;1.60;;
77678;SDS011;66835;49.478;10.724;2023-03-01T06:25:54;2.90;;;2.08;;
77678;SDS011;66835;49.478;10.724;2023-03-01T06:28:21;2.90;;;1.85;;
77678;SDS011;66835;49.478;10.724;2023-03-01T06:30:47;2.70;;;2.05;;
77678;SDS011;66835;49.478;10.724;2023-03-01T06:33:13;3.00;;;2.10;;
77678;SDS011;66835;49.478;10.724;2023-03-01T06:35:39;3.28;;;2.30;;
77678;SDS011;66835;49.478;10.724;2023-03-01T06:38:04;2.90;;;2.17;;
77678;SDS011;66835;49.478;10.724;2023-03-01T06:40:30;2.97;;;2.10;;
77678;SDS011;66835;49.478;10.724;2023-03-01T06:42:56;2.80;;;1.60;;
77678;SDS011;66835;49.478;10.724;2023-03-01T06:45:23;3.05;;;2.40;;
77678;SDS011;66835;49.478;10.724;2023-03-01T06:47:49;2.90;;;2.00;;
77678;SDS011;66835;49.478;10.724;2023-03-01T06:50:15;3.13;;;2.08;;
77678;SDS011;66835;49.478;10.724;2023-03-01T06:52:41;3.22;;;2.30;;
77678;SDS011;66835;49.478;10.724;2023-03-01T06:55:08;3.00;;;1.85;;
77678;SDS011;66835;49.478;10.724;2023-03-01T06:57:34;2.80;;;1.90;;
77678;SDS011;66835;49.478;10.724;2023-03-01T06:59:59;2.92;;;1.92;;
77678;SDS011;66835;49.478;10.724;2023-03-01T07:02:26;3.03;;;1.80;;
77678;SDS011;66835;49.478;10.724;2023-03-01T07:04:52;2.95;;;2.05;;
77678;SDS011;66835;49.478;10.724;2023-03-01T07:07:17;2.75;;;1.70;;
77678;SDS011;66835;49.478;10.724;2023-03-01T07:09:43;2.65;;;1.63;;
77678;SDS011;66835;49.478;10.724;2023-03-01T07:12:08;2.85;;;1.70;;
77678;SDS011;66835;49.478;10.724;2023-03-01T07:14:34;2.88;;;1.63;;
77678;SDS011;66835;49.478;10.724;2023-03-01T07:16:59;2.57;;;1.70;;
77678;SDS011;66835;49.478;10.724;2023-03-01T07:19:26;2.72;;;1.80;;
77678;SDS011;66835;49.478;10.724;2023-03-01T07:21:52;2.72;;;1.80;;
77678;SDS011;66835;49.478;10.724;2023-03-01T07:24:17;2.78;;;2.15;;
77678;SDS011;66835;49.478;10.724;2023-03-01T07:26:43;3.05;;;1.80;;
77678;SDS011;66835;49.478;10.724;2023-03-01T07:29:09;2.75;;;1.95;;
77678;SDS011;66835;49.478;10.724;2023-03-01T07:31:35;2.40;;;1.60;;
77678;SDS011;66835;49.478;10.724;2023-03-01T07:34:01;2.05;;;1.63;;
77678;SDS011;66835;49.478;10.724;2023-03-01T07:36:28;2.65;;;1.80;;
77678;SDS011;66835;49.478;10.724;2023-03-01T07:38:54;3.00;;;1.85;;
77678;SDS011;66835;49.478;10.724;2023-03-01T07:41:22;2.90;;;1.85;;
77678;SDS011;66835;49.478;10.724;2023-03-01T07:43:48;2.70;;;1.90;;
77678;SDS011;66835;49.478;10.724;2023-03-01T07:46:13;2.30;;;1.40;;
77678;SDS011;66835;49.478;10.724;2023-03-01T07:48:38;2.70;;;1.70;;
77678;SDS011;66835;49.478;10.724;2023-03-01T07:51:04;2.80;;;1.50;;
77678;SDS011;66835;49.478;10.724;2023-03-01T07:53:33;3.05;;;1.90;;
77678;SDS011;66835;49.478;10.724;2023-03-01T07:56:02;2.40;;;1.30;;
77678;SDS011;66835;49.478;10.724;2023-03-01T07:58:29;2.15;;;1.60;;
77678;SDS011;66835;49.478;10.724;2023-03-01T08:01:00;2.70;;;1.70;;
77678;SDS011;66835;49.478;10.724;2023-03-01T08:03:29;2.83;;;1.90;;
77678;SDS011;66835;49.478;10.724;2023-03-01T08:05:58;2.50;;;1.90;;
77678;SDS011;66835;49.478;10.724;2023-03-01T08:08:27;2.28;;;1.48;;
77678;SDS011;66835;49.478;10.724;2023-03-01T08:10:57;2.70;;;1.70;;
77678;SDS011;66835;49.478;10.724;2023-03-01T08:13:24;2.50;;;1.67;;
77678;SDS011;66835;49.478;10.724;2023-03-01T08:15:49;2.70;;;1.73;;
77678;SDS011;66835;49.478;10.724;2023-03-01T08:18:15;2.50;;;1.50;;
77678;SDS011;66835;49.478;10.724;2023-03-01T08:20:40;2.70;;;1.95;;
77678;SDS011;66835;49.478;10.724;2023-03-01T08:23:05;3.00;;;1.92;;
77678;SDS011;66835;49.478;10.724;2023-03-01T08:25:31;2.90;;;1.80;;
77678;SDS011;66835;49.478;10.724;2023-03-01T08:27:58;3.30;;;2.10;;
77678;SDS011;66835;49.478;10.724;2023-03-01T08:30:23;2.80;;;1.75;;
77678;SDS011;66835;49.478;10.724;2023-03-01T08:32:49;2.58;;;1.77;;
77678;SDS011;66835;49.478;10.724;2023-03-01T08:35:14;2.60;;;1.73;;
77678;SDS011;66835;49.478;10.724;2023-03-01T08:37:40;2.65;;;1.50;;
77678;SDS011;66835;49.478;10.724;2023-03-01T08:40:06;2.53;;;1.70;;
77678;SDS011;66835;49.478;10.724;2023-03-01T08:42:32;2.63;;;1.63;;
77678;SDS011;66835;49.478;10.724;2023-03-01T08:44:59;2.97;;;2.00;;
77678;SDS011;66835;49.478;10.724;2023-03-01T08:47:24;2.72;;;1.58;;
77678;SDS011;66835;49.478;10.724;2023-03-01T08:49:51;2.67;;;1.90;;
77678;SDS011;66835;49.478;10.724;2023-03-01T08:52:16;3.10;;;1.60;;
77678;SDS011;66835;49.478;10.724;2023-03-01T08:54:42;2.60;;;1.75;;
77678;SDS011;66835;49.478;10.724;2023-03-01T08:57:07;2.50;;;1.70;;
77678;SDS011;66835;49.478;10.724;2023-03-01T08:59:34;1.80;;;1.30;;
77678;SDS011;66835;49.478;10.724;2023-03-01T09:02:03;2.47;;;1.60;;
77678;SDS011;66835;49.478;10.724;2023-03-01T09:04:29;2.47;;;1.77;;
77678;SDS011;66835;49.478;10.724;2023-03-01T09:06:54;3.05;;;1.63;;
77678;SDS011;66835;49.478;10.724;2023-03-01T09:09:19;2.90;;;1.90;;
77678;SDS011;66835;49.478;10.724;2023-03-01T09:11:45;2.50;;;1.70;;
77678;SDS011;66835;49.478;10.724;2023-03-01T09:14:11;2.97;;;1.75;;
77678;SDS011;66835;49.478;10.724;2023-03-01T09:16:36;2.63;;;1.77;;
77678;SDS011;66835;49.478;10.724;2023-03-01T09:19:03;2.50;;;1.60;;
77678;SDS011;66835;49.478;10.724;2023-03-01T09:21:29;2.90;;;1.80;;
77678;SDS011;66835;49.478;10.724;2023-03-01T09:23:55;2.50;;;1.60;;
77678;SDS011;66835;49.478;10.724;2023-03-01T09:26:21;2.60;;;1.58;;
77678;SDS011;66835;49.478;10.724;2023-03-01T09:28:48;2.78;;;1.63;;
77678;SDS011;66835;49.478;10.724;2023-03-01T09:31:14;2.90;;;1.70;;
77678;SDS011;66835;49.478;10.724;2023-03-01T09:33:41;2.63;;;1.60;;
77678;SDS011;66835;49.478;10.724;2023-03-01T09:36:10;2.50;;;1.50;;
77678;SDS011;66835;49.478;10.724;2023-03-01T09:38:37;2.15;;;1.40;;
77678;SDS011;66835;49.478;10.724;2023-03-01T09:41:08;2.88;;;1.73;;
77678;SDS011;66835;49.478;10.724;2023-03-01T09:43:37;2.60;;;1.63;;
77678;SDS011;66835;49.478;10.724;2023-03-01T09:46:06;2.53;;;1.52;;
77678;SDS011;66835;49.478;10.724;2023-03-01T09:48:37;2.40;;;1.42;;
77678;SDS011;66835;49.478;10.724;2023-03-01T09:51:09;2.60;;;1.58;;
77678;SDS011;66835;49.478;10.724;2023-03-01T09:53:39;2.28;;;1.60;;
77678;SDS011;66835;49.478;10.724;2023-03-01T09:56:05;2.60;;;1.63;;
77678;SDS011;66835;49.478;10.724;2023-03-01T09:58:40;2.33;;;1.40;;
77678;SDS011;66835;49.478;10.724;2023-03-01T10:01:15;2.65;;;1.58;;
77678;SDS011;66835;49.478;10.724;2023-03-01T10:03:56;2.45;;;1.50;;
77678;SDS011;66835;49.478;10.724;2023-03-01T10:06:31;2.60;;;1.50;;
77678;SDS011;66835;49.478;10.724;2023-03-01T10:08:57;2.28;;;1.33;;
77678;SDS011;66835;49.478;10.724;2023-03-01T10:11:27;2.35;;;1.42;;
77678;SDS011;66835;49.478;10.724;2023-03-01T10:13:56;2.42;;;1.63;;
77678;SDS011;66835;49.478;10.724;2023-03-01T10:16:26;2.35;;;1.45;;
77678;SDS011;66835;49.478;10.724;2023-03-01T10:18:55;2.72;;;1.40;;
77678;SDS011;66835;49.478;10.724;2023-03-01T10:21:25;2.85;;;1.50;;
77678;SDS011;66835;49.478;10.724;2023-03-01T10:23:53;1.98;;;1.25;;
77678;SDS011;66835;49.478;10.724;2023-03-01T10:26:25;2.58;;;1.52;;
77678;SDS011;66835;49.478;10.724;2023-03-01T10:28:59;2.35;;;1.50;;
77678;SDS011;66835;49.478;10.724;2023-03-01T10:31:29;2.30;;;1.30;;
77678;SDS011;66835;49.478;10.724;2023-03-01T10:34:02;3.75;;;1.42;;
77678;SDS011;66835;49.478;10.724;2023-03-01T10:36:28;2.13;;;1.20;;
77678;SDS011;66835;49.478;10.724;2023-03-01T10:38:59;2.17;;;1.30;;
77678;SDS011;66835;49.478;10.724;2023-03-01T10:41:27;2.42;;;1.45;;
77678;SDS011;66835;49.478;10.724;2023-03-01T10:43:54;2.25;;;1.30;;
77678;SDS011;66835;49.478;10.724;2023-03-01T10:46:25;2.22;;;1.40;;
77678;SDS011;66835;49.478;10.724;2023-03-01T10:51:47;2.60;;;1.50;;
77678;SDS011;66835;49.478;10.724;2023-03-01T10:54:17;2.33;;;1.50;;
77678;SDS011;66835;49.478;10.724;2023-03-01T10:56:47;1.77;;;1.10;;
77678;SDS011;66835;49.478;10.724;2023-03-01T11:02:03;2.17;;;1.30;;
77678;SDS011;66835;49.478;10.724;2023-03-01T11:04:37;1.88;;;1.20;;
77678;SDS011;66835;49.478;10.724;2023-03-01T11:07:03;2.38;;;1.48;;
77678;SDS011;66835;49.478;10.724;2023-03-01T11:09:32;2.78;;;1.63;;
77678;SDS011;66835;49.478;10.724;2023-03-01T11:12:03;2.20;;;1.30;;
77678;SDS011;66835;49.478;10.724;2023-03-01T11:14:32;2.15;;;1.30;;
77678;SDS011;66835;49.478;10.724;2023-03-01T11:17:00;2.30;;;1.40;;
77678;SDS011;66835;49.478;10.724;2023-03-01T11:19:27;1.90;;;1.10;;
77678;SDS011;66835;49.478;10.724;2023-03-01T11:21:55;2.10;;;1.30;;
77678;SDS011;66835;49.478;10.724;2023-03-01T11:24:26;2.03;;;1.23;;
77678;SDS011;66835;49.478;10.724;2023-03-01T11:26:56;1.98;;;1.33;;
77678;SDS011;66835;49.478;10.724;2023-03-01T11:29:26;1.88;;;1.10;;
77678;SDS011;66835;49.478;10.724;2023-03-01T11:31:53;2.22;;;1.40;;
77678;SDS011;66835;49.478;10.724;2023-03-01T11:34:21;1.98;;;1.13;;
77678;SDS011;66835;49.478;10.724;2023-03-01T11:36:51;1.67;;;1.10;;
77678;SDS011;66835;49.478;10.724;2023-03-01T11:39:22;1.80;;;1.13;;
77678;SDS011;66835;49.478;10.724;2023-03-01T11:41:52;1.77;;;1.00;;
77678;SDS011;66835;49.478;10.724;2023-03-01T11:44:28;1.45;;;0.95;;
77678;SDS011;66835;49.478;10.724;2023-03-01T11:52:19;1.48;;;1.00;;
77678;SDS011;66835;49.478;10.724;2023-03-01T11:54:52;1.70;;;1.00;;
77678;SDS011;66835;49.478;10.724;2023-03-01T11:57:30;2.17;;;1.13;;
77678;SDS011;66835;49.478;10.724;2023-03-01T12:00:11;1.63;;;1.10;;
77678;SDS011;66835;49.478;10.724;2023-03-01T12:08:12;1.33;;;1.00;;
77678;SDS011;66835;49.478;10.724;2023-03-01T12:10:42;1.52;;;1.00;;
77678;SDS011;66835;49.478;10.724;2023-03-01T12:13:26;1.52;;;1.00;;
77678;SDS011;66835;49.478;10.724;2023-03-01T12:16:07;1.65;;;1.15;;
77678;SDS011;66835;49.478;10.724;2023-03-01T12:18:47;2.13;;;1.10;;
77678;SDS011;66835;49.478;10.724;2023-03-01T12:21:19;1.60;;;1.10;;
77678;SDS011;66835;49.478;10.724;2023-03-01T12:24:03;1.20;;;0.90;;
77678;SDS011;66835;49.478;10.724;2023-03-01T12:26:49;2.00;;;1.10;;
77678;SDS011;66835;49.478;10.724;2023-03-01T12:29:25;2.30;;;1.10;;
77678;SDS011;66835;49.478;10.724;2023-03-01T12:31:59;1.33;;;1.00;;
77678;SDS011;66835;49.478;10.724;2023-03-01T12:34:42;1.80;;;1.00;;
77678;SDS011;66835;49.478;10.724;2023-03-01T12:37:22;1.23;;;0.93;;
77678;SDS011;66835;49.478;10.724;2023-03-01T12:39:58;1.67;;;1.10;;
77678;SDS011;66835;49.478;10.724;2023-03-01T12:42:38;1.55;;;0.98;;
77678;SDS011;66835;49.478;10.724;2023-03-01T12:45:21;1.58;;;0.98;;
77678;SDS011;66835;49.478;10.724;2023-03-01T12:47:58;2.78;;;1.00;;
77678;SDS011;66835;49.478;10.724;2023-03-01T12:50:35;1.90;;;1.10;;
77678;SDS011;66835;49.478;10.724;2023-03-01T12:53:04;1.55;;;1.00;;
77678;SDS011;66835;49.478;10.724;2023-03-01T12:55:31;1.30;;;0.90;;
77678;SDS011;66835;49.478;10.724;2023-03-01T12:58:05;1.20;;;0.90;;
77678;SDS011;66835;49.478;10.724;2023-03-01T13:00:37;1.08;;;0.90;;
77678;SDS011;66835;49.478;10.724;2023-03-01T13:03:10;1.55;;;0.90;;
77678;SDS011;66835;49.478;10.724;2023-03-01T13:05:42;1.38;;;0.90;;
77678;SDS011;66835;49.478;10.724;2023-03-01T13:08:16;1.00;;;0.90;;
77678;SDS011;66835;49.478;10.724;2023-03-01T13:10:46;1.30;;;0.90;;
77678;SDS011;66835;49.478;10.724;2023-03-01T13:13:15;1.15;;;0.90;;
77678;SDS011;66835;49.478;10.724;2023-03-01T13:15:45;1.60;;;0.95;;
77678;SDS011;66835;49.478;10.724;2023-03-01T13:18:29;1.23;;;1.00;;
77678;SDS011;66835;49.478;10.724;2023-03-01T13:20:57;1.23;;;0.90;;
77678;SDS011;66835;49.478;10.724;2023-03-01T13:23:24;1.70;;;0.93;;
77678;SDS011;66835;49.478;10.724;2023-03-01T13:26:02;1.55;;;1.00;;
77678;SDS011;66835;49.478;10.724;2023-03-01T13:28:46;1.33;;;0.82;;
77678;SDS011;66835;49.478;10.724;2023-03-01T13:34:44;1.13;;;0.82;;
77678;SDS011;66835;49.478;10.724;2023-03-01T13:37:18;1.98;;;1.05;;
77678;SDS011;66835;49.478;10.724;2023-03-01T13:39:45;0.85;;;0.80;;
77678;SDS011;66835;49.478;10.724;2023-03-01T13:44:57;1.38;;;1.00;;
77678;SDS011;66835;49.478;10.724;2023-03-01T13:47:22;1.40;;;0.90;;
77678;SDS011;66835;49.478;10.724;2023-03-01T13:49:51;0.95;;;0.80;;
77678;SDS011;66835;49.478;10.724;2023-03-01T13:52:27;1.20;;;0.90;;
77678;SDS011;66835;49.478;10.724;2023-03-01T13:54:58;1.00;;;0.73;;
77678;SDS011;66835;49.478;10.724;2023-03-01T13:57:25;1.00;;;0.90;;
77678;SDS011;66835;49.478;10.724;2023-03-01T13:59:54;1.48;;;0.90;;
77678;SDS011;66835;49.478;10.724;2023-03-01T14:02:20;0.85;;;0.80;;
77678;SDS011;66835;49.478;10.724;2023-03-01T14:04:46;1.45;;;0.90;;
77678;SDS011;66835;49.478;10.724;2023-03-01T14:07:23;1.40;;;0.95;;
77678;SDS011;66835;49.478;10.724;2023-03-01T14:09:51;0.93;;;0.70;;
77678;SDS011;66835;49.478;10.724;2023-03-01T14:12:21;1.00;;;0.80;;
77678;SDS011;66835;49.478;10.724;2023-03-01T14:14:56;1.23;;;0.90;;
77678;SDS011;66835;49.478;10.724;2023-03-01T14:17:31;1.80;;;1.15;;
77678;SDS011;66835;49.478;10.724;2023-03-01T14:20:07;1.30;;;0.90;;
77678;SDS011;66835;49.478;10.724;2023-03-01T14:22:35;0.82;;;0.80;;
77678;SDS011;66835;49.478;10.724;2023-03-01T14:25:02;1.13;;;0.80;;
77678;SDS011;66835;49.478;10.724;2023-03-01T14:27:30;1.00;;;0.80;;
77678;SDS011;66835;49.478;10.724;2023-03-01T14:29:59;1.38;;;0.88;;
77678;SDS011;66835;49.478;10.724;2023-03-01T14:32:26;1.08;;;0.88;;
77678;SDS011;66835;49.478;10.724;2023-03-01T14:34:52;1.27;;;0.90;;
77678;SDS011;66835;49.478;10.724;2023-03-01T14:37:21;1.05;;;0.82;;
77678;SDS011;66835;49.478;10.724;2023-03-01T14:39:47;1.55;;;0.90;;
77678;SDS011;66835;49.478;10.724;2023-03-01T14:42:13;1.63;;;1.08;;
77678;SDS011;66835;49.478;10.724;2023-03-01T14:44:40;1.58;;;0.98;;
77678;SDS011;66835;49.478;10.724;2023-03-01T14:47:06;1.35;;;0.90;;
77678;SDS011;66835;49.478;10.724;2023-03-01T14:49:35;1.33;;;0.90;;
77678;SDS011;66835;49.478;10.724;2023-03-01T14:52:02;1.23;;;0.95;;
77678;SDS011;66835;49.478;10.724;2023-03-01T14:54:32;1.83;;;1.00;;
77678;SDS011;66835;49.478;10.724;2023-03-01T14:57:02;1.73;;;0.90;;
77678;SDS011;66835;49.478;10.724;2023-03-01T14:59:28;1.38;;;0.90;;
77678;SDS011;66835;49.478;10.724;2023-03-01T15:01:55;1.80;;;1.13;;